Time;durP1;ratioP1;P1;durP2;ratioP2;P2;SDS_P1;SDS_P2;PMS_P1;PMS_P2;Temp;Humidity;BMP_temperature;BMP_pressure;BME280_temperature;BME280_humidity;BME280_pressure;Samples;Min_cycle;Max_cycle;Signal;HPM_P1;HPM_P2
2021/07/10 00:02:11;;;;;;;0.93;0.52;;;12.10;99.90;;;;;;5063308;28;20767;-80
2021/07/10 00:04:38;;;;;;;2.45;0.60;;;12.10;99.90;;;;;;5077572;28;20436;-79
2021/07/10 00:07:05;;;;;;;2.78;0.68;;;12.10;99.90;;;;;;5062033;28;20961;-81
2021/07/10 00:09:33;;;;;;;3.17;0.77;;;12.20;99.90;;;;;;5051437;28;20384;-80
2021/07/10 00:12:01;;;;;;;0.60;0.40;;;12.20;99.90;;;;;;5049225;28;20392;-79
2021/07/10 00:14:28;;;;;;;1.25;0.68;;;12.20;99.90;;;;;;5050162;28;20426;-81
2021/07/10 00:16:55;;;;;;;3.70;0.80;;;12.30;99.90;;;;;;5064869;28;20412;-79
2021/07/10 00:19:24;;;;;;;1.00;0.52;;;12.20;99.90;;;;;;5068059;28;20378;-80
2021/07/10 00:21:51;;;;;;;1.35;0.57;;;12.30;99.90;;;;;;5067386;28;20374;-79
2021/07/10 00:24:18;;;;;;;0.90;0.47;;;12.20;99.90;;;;;;5069593;28;20385;-80
2021/07/10 00:26:46;;;;;;;0.95;0.60;;;12.30;99.90;;;;;;5060054;28;20400;-79
2021/07/10 00:29:13;;;;;;;1.25;0.50;;;12.30;99.90;;;;;;5049849;28;20379;-79
2021/07/10 00:31:40;;;;;;;0.70;0.40;;;12.20;99.90;;;;;;5050971;28;20890;-78
2021/07/10 00:34:07;;;;;;;0.47;0.38;;;12.30;99.90;;;;;;5050466;28;20368;-79
2021/07/10 00:36:38;;;;;;;1.25;0.50;;;12.30;99.90;;;;;;5052296;28;20886;-80
2021/07/10 00:39:06;;;;;;;1.17;0.52;;;12.30;99.90;;;;;;5052569;28;20387;-80
2021/07/10 00:41:33;;;;;;;1.92;0.63;;;12.30;99.90;;;;;;5056062;28;20410;-80
2021/07/10 00:44:00;;;;;;;1.63;0.60;;;12.30;99.90;;;;;;5053909;28;20878;-79
2021/07/10 00:46:27;;;;;;;3.83;0.55;;;12.30;99.90;;;;;;5071597;28;20772;-79
2021/07/10 00:48:54;;;;;;;1.95;0.55;;;12.30;99.90;;;;;;5070015;28;20744;-79
2021/07/10 00:51:22;;;;;;;1.65;0.80;;;12.30;99.90;;;;;;5049794;28;20792;-79
2021/07/10 00:53:49;;;;;;;2.10;0.40;;;12.40;99.90;;;;;;5051305;28;20387;-80
2021/07/10 00:56:17;;;;;;;1.88;0.50;;;12.40;99.90;;;;;;5055360;28;20399;-80
2021/07/10 00:58:46;;;;;;;0.57;0.40;;;12.40;99.90;;;;;;5049485;28;20368;-78
2021/07/10 01:01:13;;;;;;;0.82;0.50;;;12.50;99.90;;;;;;5057882;28;20747;-80
2021/07/10 01:03:44;;;;;;;1.43;0.43;;;12.50;99.90;;;;;;5057282;28;20493;-80
2021/07/10 01:06:13;;;;;;;1.55;0.50;;;12.50;99.90;;;;;;5053239;28;20412;-80
2021/07/10 01:08:41;;;;;;;1.92;0.73;;;12.60;99.90;;;;;;5048432;28;20413;-80
2021/07/10 01:11:10;;;;;;;1.00;0.60;;;12.60;99.90;;;;;;5046073;28;22153;-79
2021/07/10 01:13:37;;;;;;;1.10;0.60;;;12.70;99.90;;;;;;5056839;28;20423;-80
2021/07/10 01:16:05;;;;;;;1.20;0.60;;;12.70;99.90;;;;;;5053100;28;20394;-80
2021/07/10 01:18:32;;;;;;;1.95;0.60;;;12.70;99.90;;;;;;5066227;28;20433;-81
2021/07/10 01:21:00;;;;;;;4.80;0.80;;;12.80;99.90;;;;;;5057082;28;20382;-80
2021/07/10 01:23:27;;;;;;;3.10;0.80;;;12.80;99.90;;;;;;5065709;28;20390;-80
2021/07/10 01:25:54;;;;;;;1.58;0.55;;;12.80;99.90;;;;;;5053677;28;20449;-80
2021/07/10 01:28:21;;;;;;;2.28;0.65;;;12.80;99.90;;;;;;5059050;28;20409;-79
2021/07/10 01:30:49;;;;;;;1.60;0.80;;;12.80;99.90;;;;;;5053521;28;20400;-79
2021/07/10 01:33:17;;;;;;;2.72;0.50;;;12.80;99.90;;;;;;5056613;28;20465;-79
2021/07/10 01:35:44;;;;;;;2.13;0.70;;;12.80;99.90;;;;;;5050167;28;20391;-80
2021/07/10 01:38:13;;;;;;;1.50;0.50;;;12.80;99.90;;;;;;5051234;28;20391;-79
2021/07/10 01:40:42;;;;;;;4.53;0.80;;;12.80;99.90;;;;;;5054868;28;20866;-80
2021/07/10 01:43:11;;;;;;;1.60;0.68;;;12.80;99.90;;;;;;5055063;28;20407;-80
2021/07/10 01:45:39;;;;;;;1.95;0.75;;;12.80;99.90;;;;;;5051452;28;20399;-80
2021/07/10 01:48:10;;;;;;;2.58;0.70;;;12.80;99.90;;;;;;5054289;28;20473;-80
2021/07/10 01:50:37;;;;;;;1.42;0.70;;;12.80;99.90;;;;;;5052371;28;20396;-80
2021/07/10 01:53:04;;;;;;;5.65;0.80;;;12.90;99.90;;;;;;5062748;28;20975;-79
2021/07/10 01:55:32;;;;;;;3.08;0.70;;;12.90;99.90;;;;;;5063051;28;20735;-80
2021/07/10 01:57:59;;;;;;;2.05;0.88;;;13.00;99.90;;;;;;5051253;28;20404;-80
2021/07/10 02:00:29;;;;;;;1.45;0.60;;;13.00;99.90;;;;;;5054707;28;20411;-79
2021/07/10 02:02:57;;;;;;;2.22;0.80;;;12.90;99.90;;;;;;5055505;28;20450;-80
2021/07/10 02:05:26;;;;;;;3.58;0.63;;;12.80;99.90;;;;;;5055210;28;20548;-79
2021/07/10 02:07:56;;;;;;;2.47;0.73;;;12.70;99.90;;;;;;5061963;28;20492;-81
2021/07/10 02:10:24;;;;;;;1.83;0.80;;;12.70;99.90;;;;;;5054615;28;20384;-79
2021/07/10 02:12:53;;;;;;;3.22;0.90;;;12.60;99.90;;;;;;5057231;28;20483;-79
2021/07/10 02:15:20;;;;;;;2.30;0.90;;;12.60;99.90;;;;;;5063331;28;20394;-79
2021/07/10 02:17:47;;;;;;;5.25;1.08;;;12.70;99.90;;;;;;5063990;28;20386;-79
2021/07/10 02:20:20;;;;;;;3.80;1.00;;;12.80;99.90;;;;;;5057408;28;20473;-79
2021/07/10 02:22:48;;;;;;;3.45;1.13;;;12.80;99.90;;;;;;5060391;28;20387;-80
2021/07/10 02:25:18;;;;;;;4.07;1.05;;;12.90;99.90;;;;;;5057482;28;20394;-78
2021/07/10 02:27:45;;;;;;;2.45;1.00;;;12.90;99.90;;;;;;5049899;28;20396;-79
2021/07/10 02:30:17;;;;;;;2.55;1.15;;;12.90;99.90;;;;;;5051469;28;20431;-79
2021/07/10 02:32:45;;;;;;;3.00;1.00;;;12.90;99.90;;;;;;5055967;28;20482;-80
2021/07/10 02:35:15;;;;;;;3.63;0.90;;;12.90;99.90;;;;;;5050729;28;20402;-79
2021/07/10 02:37:42;;;;;;;3.40;0.95;;;12.90;99.90;;;;;;5056954;28;20395;-79
2021/07/10 02:40:11;;;;;;;3.00;0.70;;;12.90;99.90;;;;;;5053863;28;20393;-80
2021/07/10 02:42:38;;;;;;;1.77;0.88;;;12.90;99.90;;;;;;5060724;28;20438;-80
2021/07/10 02:45:07;;;;;;;2.20;0.80;;;13.00;99.90;;;;;;5062458;28;20751;-80
2021/07/10 02:47:34;;;;;;;4.30;0.93;;;13.00;99.90;;;;;;5062609;28;20412;-80
2021/07/10 02:50:03;;;;;;;3.30;0.82;;;13.10;99.90;;;;;;5059691;28;20872;-79
2021/07/10 02:52:30;;;;;;;1.83;0.90;;;13.10;99.90;;;;;;5058740;28;20529;-79
2021/07/10 02:54:57;;;;;;;3.95;1.05;;;13.10;99.90;;;;;;5051092;28;20391;-79
2021/07/10 02:57:24;;;;;;;1.95;0.70;;;13.10;99.90;;;;;;5051580;28;20410;-78
2021/07/10 02:59:51;;;;;;;4.15;0.95;;;13.10;99.90;;;;;;5060703;28;20393;-80
2021/07/10 03:02:18;;;;;;;3.00;0.60;;;13.10;99.90;;;;;;5059893;28;20391;-78
2021/07/10 03:04:45;;;;;;;1.70;0.40;;;13.10;99.90;;;;;;5072566;28;20391;-79
2021/07/10 03:07:13;;;;;;;3.90;0.65;;;13.10;99.90;;;;;;5083705;28;20475;-79
2021/07/10 03:09:40;;;;;;;3.15;1.00;;;13.20;99.90;;;;;;5061864;28;20384;-79
2021/07/10 03:12:07;;;;;;;3.00;0.70;;;13.20;99.90;;;;;;5052205;28;20446;-79
2021/07/10 03:14:35;;;;;;;1.30;0.60;;;13.20;99.90;;;;;;5053697;28;20876;-78
2021/07/10 03:17:02;;;;;;;3.20;0.70;;;13.10;99.90;;;;;;5052587;28;20438;-79
2021/07/10 03:19:29;;;;;;;2.70;0.90;;;13.10;99.90;;;;;;5049889;28;20478;-80
2021/07/10 03:21:56;;;;;;;2.30;0.63;;;13.00;99.90;;;;;;5050043;28;20383;-77
2021/07/10 03:24:23;;;;;;;2.40;0.80;;;13.00;99.90;;;;;;5065699;28;20458;-79
2021/07/10 03:26:50;;;;;;;4.25;0.70;;;13.00;99.90;;;;;;5061387;28;20404;-79
2021/07/10 03:29:17;;;;;;;3.88;0.80;;;13.00;99.90;;;;;;5057429;28;20465;-78
2021/07/10 03:31:44;;;;;;;2.58;0.40;;;13.00;99.90;;;;;;5050080;28;20391;-78
2021/07/10 03:34:11;;;;;;;1.80;0.70;;;13.00;99.90;;;;;;5050243;28;20479;-80
2021/07/10 03:36:38;;;;;;;2.70;0.70;;;13.00;99.90;;;;;;5050693;28;20404;-79
2021/07/10 03:39:05;;;;;;;5.03;1.17;;;13.00;99.90;;;;;;5058542;28;20422;-81
2021/07/10 03:41:32;;;;;;;1.42;0.60;;;13.00;99.90;;;;;;5062131;28;20425;-79
2021/07/10 03:43:59;;;;;;;2.33;0.50;;;13.00;99.90;;;;;;5054658;28;20535;-82
2021/07/10 03:46:26;;;;;;;2.70;0.70;;;12.80;99.90;;;;;;5062789;28;20405;-77
2021/07/10 03:48:53;;;;;;;3.45;0.70;;;12.60;99.90;;;;;;5068100;28;20471;-76
2021/07/10 03:51:26;;;;;;;3.85;1.00;;;12.50;99.90;;;;;;5065300;28;20825;-77
2021/07/10 03:53:54;;;;;;;2.07;0.93;;;12.30;99.90;;;;;;5060253;28;20394;-77
2021/07/10 03:56:21;;;;;;;1.90;0.70;;;12.20;99.90;;;;;;5057435;28;20879;-77
2021/07/10 03:58:48;;;;;;;4.20;0.90;;;12.10;99.90;;;;;;5050434;28;20387;-78
2021/07/10 04:01:15;;;;;;;2.83;0.80;;;12.00;99.90;;;;;;5062557;28;20377;-76
2021/07/10 04:03:42;;;;;;;2.45;1.30;;;11.90;99.90;;;;;;5064623;28;20394;-78
2021/07/10 04:06:09;;;;;;;4.72;1.67;;;11.90;99.90;;;;;;5065883;28;20409;-77
2021/07/10 04:08:36;;;;;;;1.97;1.10;;;11.80;99.90;;;;;;5051540;28;20372;-77
2021/07/10 04:11:04;;;;;;;3.65;0.90;;;11.80;99.90;;;;;;5048719;28;20388;-76
2021/07/10 04:13:30;;;;;;;1.90;0.90;;;11.70;99.90;;;;;;5048055;28;20380;-77
2021/07/10 04:15:58;;;;;;;2.95;1.13;;;11.70;99.90;;;;;;5069072;28;20374;-76
2021/07/10 04:18:24;;;;;;;3.20;1.20;;;11.70;99.90;;;;;;5066525;28;20422;-77
2021/07/10 04:20:51;;;;;;;2.57;1.20;;;11.70;99.90;;;;;;5048899;28;20386;-76
2021/07/10 04:23:20;;;;;;;1.98;0.95;;;11.60;99.90;;;;;;5053984;28;20401;-77
2021/07/10 04:25:47;;;;;;;4.00;1.05;;;11.60;99.90;;;;;;5055146;28;20413;-77
2021/07/10 04:28:14;;;;;;;5.70;2.80;;;11.50;99.90;;;;;;5062323;28;20403;-77
2021/07/10 04:30:41;;;;;;;7.95;4.03;;;11.40;99.90;;;;;;5062212;28;20380;-76
2021/07/10 04:33:08;;;;;;;5.82;2.50;;;11.40;99.90;;;;;;5068253;28;20395;-76
2021/07/10 04:35:35;;;;;;;3.28;1.70;;;11.40;99.90;;;;;;5068198;28;20378;-77
2021/07/10 04:38:02;;;;;;;3.20;1.55;;;11.50;99.90;;;;;;5054863;28;20387;-76
2021/07/10 04:40:30;;;;;;;3.80;1.55;;;11.60;99.90;;;;;;5061710;28;20401;-77
2021/07/10 04:42:58;;;;;;;7.72;1.75;;;11.60;99.90;;;;;;5062575;28;20397;-77
2021/07/10 04:45:27;;;;;;;3.30;1.48;;;11.50;99.90;;;;;;5055045;28;20424;-78
2021/07/10 04:47:55;;;;;;;7.53;2.30;;;11.50;99.90;;;;;;5054018;28;20887;-78
2021/07/10 04:50:22;;;;;;;5.40;1.75;;;11.50;99.90;;;;;;5053580;28;20455;-77
2021/07/10 04:52:49;;;;;;;6.90;1.60;;;11.50;99.90;;;;;;5059619;28;20389;-77
2021/07/10 04:55:17;;;;;;;7.30;1.87;;;11.60;99.90;;;;;;5048789;28;20481;-78
2021/07/10 04:57:45;;;;;;;7.45;2.00;;;11.60;99.90;;;;;;5051817;28;20482;-78
2021/07/10 05:00:14;;;;;;;5.53;1.60;;;11.70;99.90;;;;;;5050705;28;20384;-80
2021/07/10 05:02:41;;;;;;;7.57;1.73;;;11.80;99.90;;;;;;5055335;28;20392;-78
2021/07/10 05:05:09;;;;;;;3.77;1.80;;;11.90;99.90;;;;;;5049301;28;20372;-78
2021/07/10 05:07:36;;;;;;;4.30;1.40;;;11.90;99.90;;;;;;5052572;28;20407;-79
2021/07/10 05:10:06;;;;;;;4.32;1.40;;;11.90;99.90;;;;;;5052940;28;20758;-81
2021/07/10 05:12:33;;;;;;;4.50;1.15;;;11.90;99.90;;;;;;5056624;28;20453;-79
2021/07/10 05:15:00;;;;;;;7.00;1.30;;;12.00;99.90;;;;;;5062142;28;20398;-79
2021/07/10 05:17:27;;;;;;;3.50;1.52;;;12.00;99.90;;;;;;5064739;28;20477;-80
2021/07/10 05:19:54;;;;;;;4.97;1.95;;;12.00;99.90;;;;;;5065535;28;20393;-79
2021/07/10 05:22:21;;;;;;;5.75;1.45;;;12.00;99.90;;;;;;5058555;28;20398;-79
2021/07/10 05:24:48;;;;;;;4.10;1.95;;;12.00;99.90;;;;;;5063328;28;20412;-78
2021/07/10 05:27:15;;;;;;;4.60;1.40;;;12.00;99.90;;;;;;5053244;28;20407;-78
2021/07/10 05:29:42;;;;;;;3.50;1.30;;;12.00;99.90;;;;;;5065533;28;20481;-78
2021/07/10 05:32:09;;;;;;;4.72;1.45;;;12.00;99.90;;;;;;5062641;28;20396;-78
2021/07/10 05:34:36;;;;;;;5.25;1.80;;;12.00;99.90;;;;;;5062320;28;20803;-78
2021/07/10 05:37:04;;;;;;;6.78;1.95;;;11.90;99.90;;;;;;5057411;28;20415;-78
2021/07/10 05:39:30;;;;;;;5.85;1.80;;;11.90;99.90;;;;;;5062298;28;20425;-78
2021/07/10 05:41:58;;;;;;;6.55;1.77;;;11.80;99.90;;;;;;5066065;28;20443;-78
2021/07/10 05:44:26;;;;;;;3.47;1.33;;;11.80;99.90;;;;;;5071337;28;20381;-78
2021/07/10 05:46:53;;;;;;;3.67;1.50;;;11.80;99.90;;;;;;5039991;28;20418;-77
2021/07/10 05:49:21;;;;;;;6.13;1.50;;;11.80;99.90;;;;;;5050991;28;20383;-77
2021/07/10 05:51:48;;;;;;;6.65;2.00;;;11.90;99.90;;;;;;5058726;28;20390;-77
2021/07/10 05:54:16;;;;;;;4.85;1.63;;;11.90;99.90;;;;;;5059173;28;20374;-77
2021/07/10 05:56:44;;;;;;;6.93;1.47;;;11.90;99.90;;;;;;5054721;28;20492;-76
2021/07/10 05:59:11;;;;;;;7.65;1.58;;;11.80;99.90;;;;;;5053659;28;20376;-77
2021/07/10 06:01:38;;;;;;;7.68;1.73;;;11.70;99.90;;;;;;5060962;28;20425;-77
2021/07/10 06:04:05;;;;;;;5.38;1.40;;;11.60;99.90;;;;;;5059029;28;20383;-77
2021/07/10 06:06:32;;;;;;;9.70;1.52;;;11.40;99.90;;;;;;5060538;28;20488;-77
2021/07/10 06:08:59;;;;;;;3.43;1.60;;;11.40;99.90;;;;;;5056518;28;20384;-78
2021/07/10 06:11:26;;;;;;;6.03;1.73;;;11.40;99.90;;;;;;5084151;28;20403;-78
2021/07/10 06:13:53;;;;;;;8.57;2.90;;;11.30;99.90;;;;;;5063679;28;21066;-78
2021/07/10 06:16:20;;;;;;;8.60;2.00;;;11.20;99.90;;;;;;5049879;28;20384;-78
2021/07/10 06:18:47;;;;;;;7.07;2.60;;;11.10;99.90;;;;;;5050435;28;20885;-78
2021/07/10 06:21:14;;;;;;;10.52;3.15;;;11.10;99.90;;;;;;5051540;28;20372;-78
2021/07/10 06:23:43;;;;;;;6.72;1.90;;;11.10;99.90;;;;;;5064949;28;20396;-77
2021/07/10 06:26:11;;;;;;;8.93;1.90;;;11.10;99.90;;;;;;5067731;28;21242;-77
2021/07/10 06:28:38;;;;;;;9.43;2.50;;;11.20;99.90;;;;;;5064156;28;20958;-77
2021/07/10 06:31:05;;;;;;;8.00;2.40;;;11.10;99.90;;;;;;5063268;28;20417;-77
2021/07/10 06:33:32;;;;;;;7.78;2.38;;;11.10;99.90;;;;;;5056935;28;20731;-76
2021/07/10 06:35:59;;;;;;;7.32;2.20;;;11.10;99.90;;;;;;5050659;28;20399;-78
2021/07/10 06:38:26;;;;;;;6.47;2.38;;;11.10;99.90;;;;;;5050311;28;20421;-78
2021/07/10 06:40:53;;;;;;;9.32;2.55;;;11.10;99.90;;;;;;5065230;28;20390;-77
2021/07/10 06:43:20;;;;;;;7.80;2.25;;;11.10;99.90;;;;;;5062589;28;20480;-77
2021/07/10 06:45:47;;;;;;;7.88;2.30;;;11.10;99.90;;;;;;5061676;28;20401;-77
2021/07/10 06:48:14;;;;;;;8.55;2.80;;;11.10;99.90;;;;;;5065652;28;20935;-76
2021/07/10 06:50:41;;;;;;;10.13;3.30;;;11.10;99.90;;;;;;5063240;28;20362;-76
2021/07/10 06:53:08;;;;;;;10.52;3.03;;;11.10;99.90;;;;;;5069343;28;20386;-76
2021/07/10 06:55:35;;;;;;;11.70;3.45;;;11.00;99.90;;;;;;5050631;28;20384;-77
2021/07/10 06:58:02;;;;;;;8.05;2.42;;;11.00;99.90;;;;;;5056326;28;20467;-77
2021/07/10 07:00:29;;;;;;;7.57;3.10;;;11.00;99.90;;;;;;5063001;28;20394;-77
2021/07/10 07:02:56;;;;;;;10.95;2.95;;;11.00;99.90;;;;;;5057370;28;20872;-77
2021/07/10 07:05:23;;;;;;;8.05;2.50;;;10.90;99.90;;;;;;5050004;28;20467;-77
2021/07/10 07:07:50;;;;;;;7.03;2.30;;;10.90;99.90;;;;;;5050045;28;20882;-77
2021/07/10 07:10:17;;;;;;;11.38;2.70;;;10.80;99.90;;;;;;5049804;28;20399;-77
2021/07/10 07:12:44;;;;;;;8.90;2.20;;;10.80;99.90;;;;;;5057409;28;20465;-77
2021/07/10 07:15:12;;;;;;;9.05;2.20;;;10.80;99.90;;;;;;5052708;28;20398;-78
2021/07/10 07:17:39;;;;;;;10.15;2.47;;;10.80;99.90;;;;;;5069900;28;20454;-77
2021/07/10 07:20:10;;;;;;;9.20;2.30;;;10.70;99.90;;;;;;5069946;28;20473;-77
2021/07/10 07:22:36;;;;;;;6.90;2.10;;;10.70;99.90;;;;;;5069921;28;20378;-78
2021/07/10 07:25:05;;;;;;;6.80;2.25;;;10.70;99.90;;;;;;5066453;28;20394;-78
2021/07/10 07:27:32;;;;;;;7.72;2.95;;;10.70;99.90;;;;;;5049904;28;20388;-78
2021/07/10 07:29:59;;;;;;;7.13;3.05;;;10.60;99.90;;;;;;5049587;28;20363;-78
2021/07/10 07:32:27;;;;;;;7.83;4.07;;;10.60;99.90;;;;;;5049509;28;20892;-77
2021/07/10 07:34:54;;;;;;;9.73;3.88;;;10.60;99.90;;;;;;5049323;28;20378;-77
2021/07/10 07:37:21;;;;;;;6.18;1.90;;;10.70;99.90;;;;;;5048147;28;20414;-78
2021/07/10 07:39:48;;;;;;;8.75;3.80;;;10.60;99.90;;;;;;5049140;28;20878;-78
2021/07/10 07:42:17;;;;;;;7.75;4.18;;;10.60;99.90;;;;;;5052394;28;20405;-79
2021/07/10 07:44:45;;;;;;;7.28;2.90;;;10.60;99.90;;;;;;5054695;28;20423;-77
2021/07/10 07:47:14;;;;;;;7.50;3.33;;;10.60;99.90;;;;;;5065839;28;20410;-77
2021/07/10 07:49:43;;;;;;;13.27;5.47;;;10.60;99.90;;;;;;5049139;28;20386;-78
2021/07/10 07:52:10;;;;;;;12.18;4.80;;;10.60;99.90;;;;;;5050472;28;20375;-78
2021/07/10 07:54:37;;;;;;;9.55;4.00;;;10.60;99.90;;;;;;5049165;28;20408;-78
2021/07/10 07:57:05;;;;;;;7.70;2.90;;;10.60;99.90;;;;;;5049732;28;20370;-77
2021/07/10 07:59:32;;;;;;;7.77;2.63;;;10.50;99.90;;;;;;5050360;28;20379;-78
2021/07/10 08:01:59;;;;;;;6.35;2.80;;;10.50;99.90;;;;;;5049288;28;20455;-77
2021/07/10 08:04:26;;;;;;;7.03;2.93;;;10.50;99.90;;;;;;5055187;28;20386;-77
2021/07/10 08:06:53;;;;;;;10.52;3.22;;;10.50;99.90;;;;;;5068574;28;20772;-77
2021/07/10 08:09:21;;;;;;;8.73;3.30;;;10.50;99.90;;;;;;5052372;28;20729;-79
2021/07/10 08:11:48;;;;;;;7.53;2.92;;;10.50;99.90;;;;;;5052109;28;20414;-79
2021/07/10 08:14:14;;;;;;;8.15;3.72;;;10.50;99.90;;;;;;5058756;28;20379;-77
2021/07/10 08:16:41;;;;;;;8.00;3.33;;;10.40;99.90;;;;;;5050094;28;20387;-77
2021/07/10 08:19:08;;;;;;;5.78;3.47;;;10.40;99.90;;;;;;5048995;28;20372;-77
2021/07/10 08:21:36;;;;;;;11.85;3.55;;;10.40;99.90;;;;;;5049583;28;20392;-76
2021/07/10 08:24:03;;;;;;;8.80;3.85;;;10.40;99.90;;;;;;5059012;28;20386;-76
2021/07/10 08:26:31;;;;;;;8.60;3.63;;;10.40;99.90;;;;;;5050714;28;20415;-77
2021/07/10 08:28:58;;;;;;;7.05;3.80;;;10.40;99.90;;;;;;5048789;28;20371;-78
2021/07/10 08:31:25;;;;;;;9.65;4.38;;;10.40;99.90;;;;;;5048648;28;20767;-78
2021/07/10 08:33:52;;;;;;;12.30;5.38;;;10.40;99.90;;;;;;5052085;28;20393;-78
2021/07/10 08:36:19;;;;;;;11.77;4.53;;;10.40;99.90;;;;;;5050283;28;20889;-78
2021/07/10 08:38:47;;;;;;;8.00;3.70;;;10.40;99.90;;;;;;5051906;28;20374;-78
2021/07/10 08:41:14;;;;;;;8.05;4.22;;;10.40;99.90;;;;;;5069129;28;20385;-78
2021/07/10 08:43:43;;;;;;;21.15;15.77;;;10.40;99.90;;;;;;5068715;28;20390;-77
2021/07/10 08:46:16;;;;;;;16.60;10.73;;;10.40;99.90;;;;;;5067930;28;20423;-78
2021/07/10 08:48:43;;;;;;;14.32;7.13;;;10.50;99.90;;;;;;5053734;28;20422;-78
2021/07/10 08:51:11;;;;;;;12.13;6.35;;;10.50;99.90;;;;;;5066221;28;20381;-77
2021/07/10 08:53:38;;;;;;;10.80;5.17;;;10.50;99.90;;;;;;5072948;28;20374;-78
2021/07/10 08:56:07;;;;;;;7.57;5.40;;;10.50;99.90;;;;;;5062808;28;20375;-78
2021/07/10 08:58:35;;;;;;;8.43;6.47;;;10.50;99.90;;;;;;5059263;28;20405;-78
2021/07/10 09:01:05;;;;;;;11.25;6.70;;;10.50;99.90;;;;;;5053444;28;20410;-78
2021/07/10 09:03:32;;;;;;;9.50;5.75;;;10.40;99.90;;;;;;5068472;28;20392;-78
2021/07/10 09:05:59;;;;;;;9.05;4.97;;;10.40;99.90;;;;;;5072415;28;20408;-79
2021/07/10 09:08:27;;;;;;;7.43;4.30;;;10.40;99.90;;;;;;5072361;28;20366;-78
2021/07/10 09:11:06;;;;;;;7.97;4.25;;;10.40;99.90;;;;;;5070102;28;20413;-77
2021/07/10 09:13:54;;;;;;;9.15;3.92;;;10.40;99.90;;;;;;5072314;28;20362;-78
2021/07/10 09:16:30;;;;;;;7.78;4.15;;;10.40;99.90;;;;;;5068393;28;20516;-76
2021/07/10 09:19:10;;;;;;;7.18;4.53;;;10.40;99.90;;;;;;5053721;28;20372;-77
2021/07/10 09:21:37;;;;;;;8.63;4.00;;;10.50;99.90;;;;;;5072251;28;21146;-77
2021/07/10 09:24:14;;;;;;;6.57;4.00;;;10.50;99.90;;;;;;5064921;28;20403;-77
2021/07/10 09:26:47;;;;;;;6.68;4.00;;;10.50;99.90;;;;;;5056110;28;20411;-77
2021/07/10 09:29:20;;;;;;;7.00;3.97;;;10.50;99.90;;;;;;5072218;28;20380;-77
2021/07/10 09:32:07;;;;;;;10.50;4.22;;;10.50;99.90;;;;;;5072047;28;20860;-77
2021/07/10 09:34:47;;;;;;;7.90;4.20;;;10.50;99.90;;;;;;5065723;28;20416;-77
2021/07/10 09:37:24;;;;;;;7.25;3.42;;;10.50;99.90;;;;;;5063094;28;20382;-77
2021/07/10 09:39:56;;;;;;;6.30;3.63;;;10.40;99.90;;;;;;5069650;28;20527;-78
2021/07/10 09:42:33;;;;;;;5.80;3.38;;;10.40;99.90;;;;;;5060822;28;20460;-77
2021/07/10 09:45:00;;;;;;;6.22;3.78;;;10.40;99.90;;;;;;5069464;28;20387;-77
2021/07/10 09:47:36;;;;;;;5.88;3.70;;;10.40;99.90;;;;;;5069923;28;20402;-77
2021/07/10 09:50:08;;;;;;;6.25;3.80;;;10.40;99.90;;;;;;5073067;28;20382;-77
2021/07/10 09:52:38;;;;;;;5.20;4.07;;;10.40;99.90;;;;;;5068767;28;20382;-77
2021/07/10 09:55:11;;;;;;;7.72;4.82;;;10.40;99.90;;;;;;5050876;28;20388;-77
2021/07/10 09:57:39;;;;;;;10.53;9.43;;;10.40;99.90;;;;;;5061961;28;20450;-77
2021/07/10 10:00:18;;;;;;;11.05;7.28;;;10.40;99.90;;;;;;5047059;28;20384;-77
2021/07/10 10:02:55;;;;;;;8.00;6.32;;;10.40;99.90;;;;;;5050617;28;20907;-77
2021/07/10 10:05:30;;;;;;;7.55;5.18;;;10.40;99.90;;;;;;5064959;28;20423;-77
2021/07/10 10:08:03;;;;;;;7.33;5.17;;;10.40;99.90;;;;;;5058659;28;20400;-77
2021/07/10 10:10:35;;;;;;;7.63;5.07;;;10.40;99.90;;;;;;5056557;28;20398;-77
2021/07/10 10:13:08;;;;;;;7.15;4.30;;;10.40;99.90;;;;;;5060214;28;20391;-77
2021/07/10 10:15:41;;;;;;;7.00;4.22;;;10.40;99.90;;;;;;5049380;28;20387;-77
2021/07/10 10:18:10;;;;;;;6.70;4.22;;;10.40;99.90;;;;;;5050242;28;20456;-77
2021/07/10 10:20:38;;;;;;;6.03;4.90;;;10.40;99.90;;;;;;5061985;28;20401;-77
2021/07/10 10:23:06;;;;;;;7.20;4.80;;;10.40;99.90;;;;;;5067397;28;20929;-77
2021/07/10 10:25:34;;;;;;;5.78;4.60;;;10.40;99.90;;;;;;5061407;28;20455;-77
2021/07/10 10:28:07;;;;;;;5.93;4.63;;;10.40;99.90;;;;;;5060270;28;20412;-77
2021/07/10 10:30:34;;;;;;;9.33;4.87;;;10.40;99.90;;;;;;5047835;28;20376;-77
2021/07/10 10:33:02;;;;;;;6.65;4.80;;;10.30;99.90;;;;;;5048385;28;20417;-78
2021/07/10 10:35:29;;;;;;;5.88;4.50;;;10.20;99.90;;;;;;5051307;28;20411;-78
2021/07/10 10:37:57;;;;;;;8.43;5.15;;;10.20;99.90;;;;;;5056363;28;20480;-78
2021/07/10 10:40:26;;;;;;;16.67;10.93;;;10.10;99.90;;;;;;5051098;28;20473;-79
2021/07/10 10:43:00;;;;;;;7.47;5.47;;;10.00;99.90;;;;;;5052545;28;20408;-78
2021/07/10 10:45:33;;;;;;;8.68;5.35;;;10.00;99.90;;;;;;5051874;28;20453;-77
2021/07/10 10:48:01;;;;;;;7.88;5.35;;;9.90;99.90;;;;;;5062323;28;20484;-78
2021/07/10 10:50:34;;;;;;;6.68;4.05;;;9.90;99.90;;;;;;5057386;28;20494;-78
2021/07/10 10:53:03;;;;;;;7.18;5.50;;;9.90;99.90;;;;;;5067414;28;20402;-78
2021/07/10 10:55:31;;;;;;;5.18;3.60;;;10.00;99.90;;;;;;5053814;28;20497;-78
2021/07/10 10:58:01;;;;;;;5.65;3.80;;;10.00;99.90;;;;;;5058340;28;20394;-78
2021/07/10 11:00:30;;;;;;;3.83;2.92;;;9.90;99.90;;;;;;5047282;28;20457;-78
2021/07/10 11:03:01;;;;;;;3.57;2.67;;;9.80;99.90;;;;;;5049542;28;20407;-78
2021/07/10 11:05:33;;;;;;;3.63;2.40;;;9.80;99.90;;;;;;5050645;28;20413;-78
2021/07/10 11:08:19;;;;;;;4.47;2.30;;;9.80;99.90;;;;;;5058885;28;20411;-79
2021/07/10 11:10:59;;;;;;;4.68;2.28;;;9.80;99.90;;;;;;5053122;28;20434;-78
2021/07/10 11:13:29;;;;;;;3.53;1.77;;;9.80;99.90;;;;;;5063252;28;20394;-79
2021/07/10 11:16:20;;;;;;;2.15;1.55;;;9.80;99.90;;;;;;5051601;28;20478;-78
2021/07/10 11:19:03;;;;;;;3.20;1.50;;;9.90;99.90;;;;;;5059721;28;20394;-79
2021/07/10 11:21:41;;;;;;;5.03;1.85;;;9.80;99.90;;;;;;5058800;28;20969;-77
2021/07/10 11:24:20;;;;;;;5.85;1.60;;;9.80;99.90;;;;;;5054057;28;20395;-78
2021/07/10 11:27:07;;;;;;;3.78;2.20;;;9.70;99.90;;;;;;5052108;28;20774;-79
2021/07/10 11:29:40;;;;;;;3.53;2.58;;;9.60;99.90;;;;;;5057984;28;20905;-78
2021/07/10 11:32:13;;;;;;;2.95;1.80;;;9.60;99.90;;;;;;5075607;28;20782;-79
2021/07/10 11:34:50;;;;;;;3.40;1.80;;;9.60;99.90;;;;;;5057488;28;20375;-79
2021/07/10 11:37:18;;;;;;;3.55;1.90;;;9.50;99.90;;;;;;5057764;28;20379;-79
2021/07/10 11:39:46;;;;;;;3.70;1.90;;;9.50;99.90;;;;;;5055655;28;20407;-79
2021/07/10 11:42:41;;;;;;;3.20;2.00;;;9.50;99.90;;;;;;5059174;28;20406;-78
2021/07/10 11:45:26;;;;;;;7.53;2.20;;;9.60;99.90;;;;;;5059499;28;20468;-78
2021/07/10 11:48:00;;;;;;;4.47;2.22;;;9.60;99.90;;;;;;5063184;28;20417;-78
2021/07/10 11:50:33;;;;;;;6.65;2.70;;;9.50;99.90;;;;;;5053407;28;20874;-78
2021/07/10 11:53:12;;;;;;;8.30;4.13;;;9.50;99.90;;;;;;5057428;28;20388;-78
2021/07/10 11:55:46;;;;;;;6.50;4.05;;;9.50;99.90;;;;;;5053232;28;20389;-78
2021/07/10 11:58:15;;;;;;;6.32;3.85;;;9.40;99.90;;;;;;5060225;28;20477;-79
2021/07/10 12:00:44;;;;;;;5.30;3.20;;;9.40;99.90;;;;;;5059359;28;20511;-79
2021/07/10 12:03:17;;;;;;;5.78;2.47;;;9.30;99.90;;;;;;5059993;28;20382;-79
2021/07/10 12:05:44;;;;;;;9.73;2.10;;;9.30;99.90;;;;;;5065446;28;20385;-79
2021/07/10 12:08:11;;;;;;;4.95;1.98;;;9.30;99.90;;;;;;5056332;28;20799;-79
2021/07/10 12:10:43;;;;;;;4.85;1.88;;;9.20;99.90;;;;;;5064140;28;20393;-79
2021/07/10 12:13:18;;;;;;;7.43;1.80;;;9.20;99.90;;;;;;5055067;28;20412;-79
2021/07/10 12:15:45;;;;;;;7.28;2.40;;;9.20;99.90;;;;;;5048631;28;20522;-78
2021/07/10 12:18:14;;;;;;;5.43;2.00;;;9.20;99.90;;;;;;5057309;28;20420;-79
2021/07/10 12:21:00;;;;;;;6.35;2.30;;;9.20;99.90;;;;;;5058970;28;20399;-79
2021/07/10 12:23:33;;;;;;;7.68;2.63;;;9.20;99.90;;;;;;5047316;28;20388;-79
2021/07/10 12:26:06;;;;;;;8.00;2.92;;;9.20;99.90;;;;;;5059031;28;20407;-79
2021/07/10 12:28:44;;;;;;;4.88;2.90;;;9.10;99.90;;;;;;5058007;28;20384;-79
2021/07/10 12:31:20;;;;;;;5.13;2.90;;;9.10;99.90;;;;;;5053425;28;20470;-79
2021/07/10 12:33:54;;;;;;;5.10;2.80;;;9.10;99.90;;;;;;5048724;28;20608;-79
2021/07/10 12:36:35;;;;;;;4.77;2.70;;;9.00;99.90;;;;;;5051135;28;20403;-79
2021/07/10 12:39:07;;;;;;;5.05;2.45;;;9.00;99.90;;;;;;5050825;28;20905;-79
2021/07/10 12:41:47;;;;;;;4.15;2.60;;;9.10;99.90;;;;;;5058122;28;20831;-79
2021/07/10 12:44:30;;;;;;;4.10;2.77;;;9.10;99.90;;;;;;5060330;28;20771;-79
2021/07/10 12:46:59;;;;;;;5.65;2.40;;;9.10;99.90;;;;;;5054910;28;20426;-79
2021/07/10 12:49:35;;;;;;;5.40;2.60;;;9.10;99.90;;;;;;5057240;28;20411;-80
2021/07/10 12:52:05;;;;;;;8.38;2.42;;;9.00;99.90;;;;;;5068660;28;20730;-80
2021/07/10 12:54:43;;;;;;;4.37;2.43;;;8.90;99.90;;;;;;5066371;28;20490;-79
2021/07/10 12:57:20;;;;;;;3.67;2.17;;;8.90;99.90;;;;;;5048230;28;20391;-80
2021/07/10 12:59:52;;;;;;;8.05;4.28;;;8.80;99.90;;;;;;5057903;28;20378;-80